Time;durP1;ratioP1;P1;durP2;ratioP2;P2;SDS_P1;SDS_P2;PMS_P1;PMS_P2;Temp;Humidity;BMP_temperature;BMP_pressure;BME280_temperature;BME280_humidity;BME280_pressure;Samples;Min_cycle;Max_cycle;Signal;HPM_P1;HPM_P2
2022/05/24 00:00:21;;;;;;;7.05;4.00;;;;;;;18.93;72.84;93988.63;5073964;28;20600;-63
2022/05/24 00:02:47;;;;;;;6.82;4.07;;;;;;;19.00;72.96;93997.16;5073573;28;20193;-63
2022/05/24 00:05:12;;;;;;;8.30;5.07;;;;;;;18.84;72.77;93994.97;5055541;28;20665;-60
2022/05/24 00:07:39;;;;;;;7.53;4.05;;;;;;;18.57;74.37;93972.72;5073713;28;20678;-60
2022/05/24 00:10:07;;;;;;;5.32;3.70;;;;;;;18.46;74.72;93978.44;5073781;28;20218;-60
2022/05/24 00:12:33;;;;;;;5.20;3.75;;;;;;;18.30;75.99;93970.03;5073129;28;20271;-61
2022/05/24 00:17:47;;;;;;;5.10;3.38;;;;;;;18.26;75.87;93986.84;5073098;28;20257;-59
2022/05/24 00:20:12;;;;;;;3.90;3.08;;;;;;;18.31;75.43;93988.84;5073287;28;20652;-64
2022/05/24 00:22:38;;;;;;;4.57;3.35;;;;;;;18.03;76.23;93986.38;5073263;28;20193;-63
2022/05/24 00:25:04;;;;;;;3.28;2.65;;;;;;;17.92;75.77;93981.75;5073408;28;20181;-62
2022/05/24 00:27:30;;;;;;;4.45;2.70;;;;;;;17.93;74.37;93988.50;5055168;28;20180;-63
2022/05/24 00:29:56;;;;;;;4.55;2.28;;;;;;;17.93;74.54;93993.66;5055294;28;20185;-60
2022/05/24 00:32:22;;;;;;;2.58;2.38;;;;;;;18.00;73.40;94003.94;5055156;28;20688;-62
2022/05/24 00:34:48;;;;;;;2.40;2.20;;;;;;;17.97;72.50;94020.59;5073312;28;20239;-61
2022/05/24 00:37:15;;;;;;;3.80;2.42;;;;;;;18.12;71.55;94035.91;5072881;28;20213;-61
2022/05/24 00:39:40;;;;;;;4.65;2.53;;;;;;;18.11;71.25;94032.53;5073205;28;20264;-63
2022/05/24 00:42:11;;;;;;;3.72;2.50;;;;;;;18.06;71.23;94018.66;5072886;28;20722;-61
2022/05/24 00:44:42;;;;;;;2.88;2.40;;;;;;;17.92;71.90;94011.81;5054981;28;20197;-63
2022/05/24 00:47:23;;;;;;;7.18;2.78;;;;;;;18.10;71.32;94030.94;5054739;28;20234;-62
2022/05/24 00:49:57;;;;;;;6.85;2.65;;;;;;;18.21;70.46;94037.31;5072751;28;20180;-63
2022/05/24 00:52:42;;;;;;;6.60;2.58;;;;;;;18.01;71.78;94016.66;5054770;28;20173;-60
2022/05/24 00:55:09;;;;;;;2.50;2.30;;;;;;;18.03;71.68;94022.41;5054751;28;20226;-61
2022/05/24 00:58:07;;;;;;;4.22;2.47;;;;;;;18.07;72.20;94017.66;5072516;28;20221;-60
2022/05/24 01:00:33;;;;;;;4.85;2.70;;;;;;;18.11;72.26;94014.53;5002521;28;20709;-59
2022/05/24 01:02:58;;;;;;;2.40;2.20;;;;;;;18.10;72.59;94020.63;5072601;28;20197;-61
2022/05/24 01:05:27;;;;;;;4.13;2.55;;;;;;;18.12;72.55;94017.91;5072763;28;20173;-60
2022/05/24 01:07:53;;;;;;;4.38;2.28;;;;;;;18.20;72.47;94028.03;5072185;28;20556;-61
2022/05/24 01:10:25;;;;;;;4.63;2.60;;;;;;;18.33;71.64;94040.94;5072254;28;20271;-61
2022/05/24 01:13:00;;;;;;;2.80;2.20;;;;;;;18.35;71.82;94037.19;5072270;28;20303;-61
2022/05/24 01:15:26;;;;;;;3.35;2.45;;;;;;;18.64;70.75;94056.75;5072220;28;20718;-63
2022/05/24 01:17:53;;;;;;;4.00;2.30;;;;;;;18.42;71.76;94032.06;5054251;28;20311;-64
2022/05/24 01:20:18;;;;;;;5.45;2.28;;;;;;;18.41;72.16;94027.91;5054177;28;20646;-61
2022/05/24 01:23:08;;;;;;;3.05;2.45;;;;;;;18.73;70.68;94053.00;5054078;28;20243;-61
2022/05/24 01:25:52;;;;;;;4.65;2.40;;;;;;;18.49;71.96;94032.09;5054200;28;20597;-59
2022/05/24 01:28:26;;;;;;;4.18;2.50;;;;;;;18.67;71.20;94050.38;5054096;28;20205;-60
2022/05/24 01:30:54;;;;;;;4.78;3.28;;;;;;;18.62;71.03;94045.84;5071782;28;20184;-62
2022/05/24 01:36:09;;;;;;;6.93;3.03;;;;;;;18.09;73.50;94003.63;5072591;28;20179;-61
2022/05/24 01:38:36;;;;;;;4.40;3.33;;;;;;;17.90;74.71;93981.16;5053963;28;20709;-62
2022/05/24 01:41:03;;;;;;;3.85;3.05;;;;;;;18.09;73.96;93995.09;5072512;28;20741;-62
2022/05/24 01:43:29;;;;;;;6.22;2.72;;;;;;;18.16;73.65;93994.13;5054387;28;20220;-63
2022/05/24 01:46:05;;;;;;;7.75;3.33;;;;;;;18.10;73.97;93992.34;5072688;28;20185;-64
2022/05/24 01:49:00;;;;;;;4.30;3.10;;;;;;;18.17;74.05;93994.94;5072136;28;20204;-63
2022/05/24 01:51:31;;;;;;;6.30;2.85;;;;;;;18.26;73.59;94004.09;5071244;28;20229;-61
2022/05/24 01:54:00;;;;;;;8.20;3.42;;;;;;;18.07;74.48;93985.00;5071840;28;20582;-61
2022/05/24 01:56:35;;;;;;;3.20;2.90;;;;;;;17.96;75.19;93985.53;5071758;28;20177;-62
2022/05/24 01:59:03;;;;;;;5.57;3.33;;;;;;;17.93;75.86;93991.09;5071960;28;20188;-62
2022/05/24 02:01:44;;;;;;;8.88;3.28;;;;;;;18.04;75.72;93997.47;5071825;28;20204;-63
2022/05/24 02:04:09;;;;;;;6.78;3.25;;;;;;;17.94;76.87;93987.50;5071803;28;20207;-60
2022/05/24 02:06:35;;;;;;;5.57;3.85;;;;;;;17.64;78.66;93993.88;5071261;28;20177;-61
2022/05/24 02:09:02;;;;;;;7.78;3.20;;;;;;;17.64;80.01;93999.03;5053768;28;20270;-60
2022/05/24 02:11:29;;;;;;;4.57;3.20;;;;;;;17.87;79.17;93999.56;5053836;28;20574;-59
2022/05/24 02:14:21;;;;;;;4.00;3.10;;;;;;;17.82;79.83;94001.91;5071629;28;20193;-58
2022/05/24 02:16:54;;;;;;;7.75;3.30;;;;;;;17.63;80.99;94007.72;5078883;22;20244;-60
2022/05/24 02:19:22;;;;;;;5.72;3.60;;;;;;;17.64;81.47;94014.44;5071659;28;20586;-60
2022/05/24 02:21:52;;;;;;;5.40;3.35;;;;;;;17.66;81.57;94012.47;5071967;28;20264;-62
2022/05/24 02:24:23;;;;;;;6.10;2.90;;;;;;;17.48;83.20;94020.63;5071951;28;20203;-63
2022/05/24 02:26:50;;;;;;;8.13;3.08;;;;;;;17.57;83.56;94011.06;5053764;28;20200;-61
2022/05/24 02:29:18;;;;;;;7.68;3.75;;;;;;;17.76;81.69;94001.84;5071301;28;20204;-62
2022/05/24 02:31:44;;;;;;;8.48;3.70;;;;;;;17.71;82.85;93994.72;5071872;28;20267;-63
2022/05/24 02:34:11;;;;;;;7.45;4.03;;;;;;;17.46;84.14;93989.19;5071637;28;20683;-60
2022/05/24 02:36:36;;;;;;;6.30;3.45;;;;;;;17.26;86.09;93983.13;5071709;28;20192;-61
2022/05/24 02:39:03;;;;;;;8.07;3.60;;;;;;;17.36;85.56;93995.63;5071604;28;20196;-61
2022/05/24 02:41:29;;;;;;;8.93;3.92;;;;;;;17.30;85.90;94002.31;5053641;28;20250;-60
2022/05/24 02:43:56;;;;;;;7.65;3.63;;;;;;;17.46;85.53;94016.66;5056721;28;20224;-60
2022/05/24 02:46:22;;;;;;;11.15;3.95;;;;;;;17.55;84.84;94024.06;5075139;28;20181;-63
2022/05/24 02:48:48;;;;;;;12.02;3.95;;;;;;;17.60;84.66;94026.06;5056935;28;20228;-63
2022/05/24 02:51:14;;;;;;;5.65;3.58;;;;;;;17.46;86.29;94034.66;5075372;28;20258;-61
2022/05/24 02:53:41;;;;;;;10.48;4.13;;;;;;;17.75;84.40;94031.94;5074840;28;20223;-63
2022/05/24 02:56:07;;;;;;;6.13;3.70;;;;;;;17.67;84.54;94019.22;5057077;28;20181;-60
2022/05/24 02:58:33;;;;;;;9.25;3.78;;;;;;;17.46;86.24;94026.94;5074740;28;20216;-62
2022/05/24 03:00:59;;;;;;;6.63;3.53;;;;;;;17.46;85.89;94030.31;5056978;28;20193;-63
2022/05/24 03:03:25;;;;;;;6.10;3.38;;;;;;;17.46;85.72;94032.06;5056884;28;20193;-62
2022/05/24 03:05:50;;;;;;;5.53;3.55;;;;;;;17.69;83.24;94040.41;5074872;28;20651;-60
2022/05/24 03:11:00;;;;;;;8.48;4.10;;;;;;;17.70;83.66;94030.88;5075213;28;20243;-63
2022/05/24 03:16:14;;;;;;;6.68;4.13;;;;;;;17.93;81.94;94041.72;5074801;28;20242;-62
2022/05/24 03:18:42;;;;;;;8.32;4.30;;;;;;;17.93;82.34;94034.00;5074639;28;20220;-62
2022/05/24 03:21:07;;;;;;;6.13;4.22;;;;;;;17.86;82.80;94033.97;5074800;28;20265;-63
2022/05/24 03:23:34;;;;;;;7.85;3.83;;;;;;;17.71;83.45;94027.34;5074626;28;20222;-63
2022/05/24 03:26:00;;;;;;;10.63;4.32;;;;;;;17.74;83.47;94027.75;5074751;28;20181;-64
2022/05/24 03:28:25;;;;;;;6.63;4.00;;;;;;;17.83;83.07;94024.06;5074190;28;20203;-62
2022/05/24 03:30:51;;;;;;;9.02;4.70;;;;;;;17.78;83.37;94023.81;5074380;28;20254;-63
2022/05/24 03:33:17;;;;;;;10.52;4.63;;;;;;;17.48;85.47;94020.63;5074300;28;20222;-64
2022/05/24 03:35:42;;;;;;;6.55;4.25;;;;;;;17.36;86.53;94034.97;5056204;28;20276;-60
2022/05/24 03:38:08;;;;;;;5.75;4.15;;;;;;;17.53;85.05;94023.47;5056127;28;20246;-60
2022/05/24 03:40:34;;;;;;;8.57;4.40;;;;;;;17.70;84.08;94028.31;5074248;28;20193;-59
2022/05/24 03:43:01;;;;;;;9.55;3.92;;;;;;;17.59;84.75;94032.22;5087124;22;20603;-62
2022/05/24 03:45:27;;;;;;;7.13;3.25;;;;;;;17.52;84.68;94027.03;5094217;28;20181;-59
2022/05/24 03:47:53;;;;;;;6.65;4.15;;;;;;;17.55;84.55;94034.34;5094553;28;20228;-63
2022/05/24 03:50:22;;;;;;;10.13;3.50;;;;;;;17.54;85.05;94039.69;5094425;28;20648;-63
2022/05/24 03:52:48;;;;;;;11.63;3.83;;;;;;;17.65;84.20;94043.53;5092739;28;20204;-63
2022/05/24 03:55:14;;;;;;;6.63;3.90;;;;;;;17.52;85.40;94033.94;5093202;28;20172;-62
2022/05/24 04:00:25;;;;;;;6.40;3.50;;;;;;;17.27;86.91;94036.06;5094306;28;20211;-61
2022/05/24 04:02:50;;;;;;;6.85;3.72;;;;;;;17.35;86.36;94041.09;5094048;28;20235;-61
2022/05/24 04:05:16;;;;;;;8.65;3.22;;;;;;;17.41;86.21;94040.34;5093841;28;20253;-60
2022/05/24 04:07:41;;;;;;;7.55;3.60;;;;;;;17.38;86.97;94047.63;5093743;28;20223;-61
2022/05/24 04:10:10;;;;;;;9.10;4.10;;;;;;;17.51;86.23;94051.13;5093733;28;20782;-62
2022/05/24 04:12:36;;;;;;;8.32;4.55;;;;;;;17.49;85.66;94062.59;5093498;28;20223;-63
2022/05/24 04:15:02;;;;;;;12.10;4.53;;;;;;;17.58;84.45;94064.03;5092281;28;20214;-62
2022/05/24 04:17:28;;;;;;;8.15;4.68;;;;;;;17.56;85.32;94068.56;5093483;28;20208;-62
2022/05/24 04:19:53;;;;;;;9.25;4.30;;;;;;;17.51;85.85;94061.41;5092304;28;20176;-61
2022/05/24 04:22:19;;;;;;;7.50;5.05;;;;;;;17.33;87.18;94055.88;5093464;28;20238;-63
2022/05/24 04:24:44;;;;;;;7.80;4.72;;;;;;;17.29;87.58;94057.25;5093400;28;20172;-62
2022/05/24 04:27:10;;;;;;;6.75;4.75;;;;;;;17.60;85.54;94054.34;5092120;28;20180;-64
2022/05/24 04:29:39;;;;;;;7.53;4.78;;;;;;;17.43;86.96;94058.16;5092101;28;20192;-64
2022/05/24 04:32:05;;;;;;;6.10;4.63;;;;;;;17.50;86.60;94052.13;5091966;28;20613;-64
2022/05/24 04:34:30;;;;;;;7.30;4.22;;;;;;;17.61;86.78;94053.38;5093103;28;20200;-65
2022/05/24 04:36:56;;;;;;;6.40;4.47;;;;;;;17.64;85.74;94050.44;5091833;28;20297;-64
2022/05/24 04:39:21;;;;;;;6.75;4.10;;;;;;;17.73;85.71;94059.59;5093174;28;20196;-65
2022/05/24 04:44:31;;;;;;;8.70;3.67;;;;;;;17.98;83.66;94065.88;5093950;28;20235;-62
2022/05/24 04:47:08;;;;;;;4.32;3.80;;;;;;;17.91;84.32;94057.34;5091556;28;20176;-63
2022/05/24 04:49:35;;;;;;;6.90;3.65;;;;;;;17.97;83.42;94061.72;5092924;28;20283;-60
2022/05/24 04:52:00;;;;;;;7.13;3.88;;;;;;;17.98;83.66;94063.31;5092956;28;20177;-61
2022/05/24 04:54:27;;;;;;;5.10;3.58;;;;;;;17.81;85.89;94045.81;5092613;28;20195;-63
2022/05/24 04:56:53;;;;;;;5.57;3.55;;;;;;;18.06;83.97;94060.59;5091136;28;20294;-62
2022/05/24 04:59:19;;;;;;;7.35;4.15;;;;;;;18.04;84.04;94061.78;5091105;28;20650;-62
2022/05/24 05:01:45;;;;;;;6.38;4.25;;;;;;;17.85;85.78;94059.88;5090783;28;20263;-64
2022/05/24 05:04:11;;;;;;;8.38;4.72;;;;;;;17.65;86.87;94062.31;5093080;28;20657;-63
2022/05/24 05:06:37;;;;;;;10.18;5.43;;;;;;;17.87;85.20;94075.91;5092652;28;20207;-59
2022/05/24 05:09:03;;;;;;;8.63;5.15;;;;;;;17.69;85.64;94083.28;5092289;28;20213;-61
2022/05/24 05:11:28;;;;;;;13.07;4.93;;;;;;;17.83;85.46;94088.34;5092461;28;20172;-61
2022/05/24 05:13:54;;;;;;;13.65;5.75;;;;;;;18.10;83.24;94105.53;5093166;28;20199;-63
2022/05/24 05:16:19;;;;;;;4.97;4.47;;;;;;;18.29;81.75;94122.88;5092521;28;20175;-60
2022/05/24 05:18:45;;;;;;;17.45;4.82;;;;;;;18.25;83.41;94090.78;5091143;28;20216;-63
2022/05/24 05:21:11;;;;;;;7.28;4.55;;;;;;;18.37;82.29;94103.91;5092407;28;20174;-62
2022/05/24 05:23:36;;;;;;;9.00;4.75;;;;;;;18.47;86.79;94095.84;5092375;28;20199;-60
2022/05/24 05:26:02;;;;;;;5.28;3.95;;;;;;;18.51;83.16;94115.09;5092337;28;20172;-60
2022/05/24 05:28:27;;;;;;;9.27;4.18;;;;;;;18.56;82.65;94116.13;5091097;28;20693;-62
2022/05/24 05:33:37;;;;;;;10.63;4.07;;;;;;;18.85;81.58;94123.56;5092675;28;20210;-61
2022/05/24 05:36:03;;;;;;;5.53;4.20;;;;;;;18.83;80.13;94132.44;5091904;28;20620;-60
2022/05/24 05:38:31;;;;;;;5.93;4.53;;;;;;;18.57;80.34;94134.91;5092565;28;20222;-63
2022/05/24 05:40:58;;;;;;;8.73;4.13;;;;;;;18.82;78.78;94148.91;5092275;28;20176;-63
2022/05/24 05:43:24;;;;;;;5.72;3.90;;;;;;;18.79;79.92;94144.13;5091486;28;20311;-61
2022/05/24 05:45:54;;;;;;;8.88;4.20;;;;;;;18.73;80.19;94125.09;5091625;28;20656;-65
2022/05/24 05:48:19;;;;;;;5.55;3.85;;;;;;;18.90;79.30;94138.44;5089488;28;20239;-61
2022/05/24 05:50:47;;;;;;;8.88;4.25;;;;;;;18.74;80.26;94131.84;5090997;28;20165;-64
2022/05/24 05:53:12;;;;;;;7.57;3.75;;;;;;;18.95;78.97;94154.09;5092463;28;20227;-61
2022/05/24 05:55:38;;;;;;;4.35;3.65;;;;;;;19.08;78.64;94164.47;5092143;28;20703;-62
2022/05/24 05:58:03;;;;;;;8.10;4.43;;;;;;;18.93;78.56;94158.66;5091711;28;20230;-60
2022/05/24 06:00:29;;;;;;;7.68;4.15;;;;;;;18.94;79.26;94152.53;5090307;28;20233;-61
2022/05/24 06:02:54;;;;;;;9.30;4.70;;;;;;;18.93;79.48;94151.72;5091782;28;20218;-64
2022/05/24 06:05:20;;;;;;;9.10;4.70;;;;;;;18.89;76.67;94183.19;5090404;28;20668;-64
2022/05/24 06:07:45;;;;;;;7.53;5.15;;;;;;;18.77;78.02;94164.94;5091717;28;20192;-63
2022/05/24 06:10:11;;;;;;;7.10;4.70;;;;;;;18.58;78.47;94162.28;5091781;28;20202;-63
2022/05/24 06:12:37;;;;;;;9.70;4.95;;;;;;;18.42;79.77;94150.47;5091771;28;20701;-61
2022/05/24 06:15:03;;;;;;;9.40;4.82;;;;;;;18.28;80.06;94152.16;5090487;28;20169;-63
2022/05/24 06:17:29;;;;;;;9.45;4.75;;;;;;;18.53;78.52;94170.56;5092769;28;20220;-60
2022/05/24 06:19:59;;;;;;;10.05;5.05;;;;;;;18.54;78.69;94176.50;5095650;28;20347;-60
2022/05/24 06:22:24;;;;;;;7.45;4.30;;;;;;;18.48;79.25;94172.13;5095778;28;20180;-62
2022/05/24 06:24:50;;;;;;;5.15;4.57;;;;;;;18.47;78.01;94185.97;5094513;28;20570;-64
2022/05/24 06:27:19;;;;;;;7.00;4.20;;;;;;;18.56;77.80;94189.97;5095700;28;20267;-63
2022/05/24 06:29:45;;;;;;;10.77;5.00;;;;;;;18.46;77.76;94176.66;5095441;28;20174;-62
2022/05/24 06:32:10;;;;;;;15.27;4.75;;;;;;;18.49;78.64;94164.19;5095450;28;20184;-61
2022/05/24 06:34:36;;;;;;;7.90;4.90;;;;;;;18.53;78.88;94152.53;5095121;28;20196;-61
2022/05/24 06:37:01;;;;;;;5.75;4.45;;;;;;;18.48;79.61;94130.94;5077086;28;20207;-60
2022/05/24 06:39:33;;;;;;;13.55;4.65;;;;;;;18.66;79.33;94144.09;5095207;28;20232;-63
2022/05/24 06:41:58;;;;;;;9.70;4.53;;;;;;;18.67;79.28;94138.75;5095027;28;20185;-61
2022/05/24 06:44:24;;;;;;;7.57;5.38;;;;;;;18.83;76.78;94163.38;5095922;28;20261;-62
2022/05/24 06:46:49;;;;;;;7.28;4.57;;;;;;;18.83;77.16;94156.44;5094973;28;20188;-61
2022/05/24 06:49:15;;;;;;;12.15;5.35;;;;;;;18.95;76.58;94159.25;5094900;28;20495;-62
2022/05/24 06:51:40;;;;;;;8.45;5.18;;;;;;;18.94;77.85;94135.28;5093561;28;20723;-61
2022/05/24 06:54:06;;;;;;;14.13;5.50;;;;;;;19.10;77.29;94145.25;5095383;28;20204;-63
2022/05/24 06:56:31;;;;;;;10.95;6.22;;;;;;;19.10;77.32;94144.44;5094793;28;20210;-61
2022/05/24 07:04:25;;;;;;;6.95;5.13;;;;;;;19.23;75.04;94172.81;5094819;28;20566;-63
2022/05/24 07:06:51;;;;;;;8.15;4.82;;;;;;;19.34;75.39;94167.16;5094336;28;20271;-64
2022/05/24 07:09:16;;;;;;;14.60;5.65;;;;;;;19.60;73.11;94189.59;5093146;28;20202;-64
2022/05/24 07:11:42;;;;;;;13.35;9.07;;;;;;;19.77;73.53;94181.31;5094524;28;20229;-64
2022/05/24 07:14:07;;;;;;;6.80;4.63;;;;;;;19.56;75.94;94139.41;5094417;28;20234;-62
2022/05/24 07:16:33;;;;;;;6.80;4.57;;;;;;;19.58;75.66;94153.69;5094612;28;20179;-64
2022/05/24 07:18:58;;;;;;;6.18;4.63;;;;;;;19.76;75.40;94163.44;5094956;28;20711;-64
2022/05/24 07:21:23;;;;;;;12.02;5.10;;;;;;;20.09;74.46;94190.06;5094589;28;20641;-65
2022/05/24 07:23:49;;;;;;;7.43;5.38;;;;;;;20.14;73.67;94197.22;5094692;28;20658;-61
2022/05/24 07:26:17;;;;;;;8.52;4.82;;;;;;;20.38;72.54;94214.72;5094358;28;20177;-59
2022/05/24 07:28:43;;;;;;;9.40;4.85;;;;;;;20.29;71.59;94231.38;5092695;28;20208;-62
2022/05/24 07:31:16;;;;;;;11.50;7.07;;;;;;;20.26;73.21;94199.00;5094066;28;20168;-65
2022/05/24 07:33:41;;;;;;;11.38;5.10;;;;;;;20.34;73.47;94198.03;5094691;28;20361;-63
2022/05/24 07:36:07;;;;;;;8.20;4.97;;;;;;;20.61;73.47;94190.03;5094191;28;20263;-60
2022/05/24 07:38:33;;;;;;;9.55;5.07;;;;;;;20.73;68.70;94272.88;5094437;28;20208;-60
2022/05/24 07:46:27;;;;;;;8.38;5.18;;;;;;;20.69;73.93;94171.72;5094125;28;20230;-62
2022/05/24 07:48:53;;;;;;;7.07;4.20;;;;;;;20.84;73.58;94169.69;5094519;28;20200;-64
2022/05/24 07:51:19;;;;;;;10.57;4.68;;;;;;;21.18;71.83;94201.41;5075779;28;20172;-62
2022/05/24 07:53:44;;;;;;;8.90;4.72;;;;;;;21.31;70.76;94215.06;5094153;28;20200;-63
2022/05/24 07:56:10;;;;;;;16.42;4.95;;;;;;;21.25;68.68;94238.38;5092537;28;20176;-61
2022/05/24 07:58:35;;;;;;;7.88;4.88;;;;;;;21.26;71.38;94188.25;5094103;28;20212;-62
2022/05/24 08:01:01;;;;;;;10.13;5.22;;;;;;;21.20;71.80;94189.06;5093535;28;20629;-61
2022/05/24 08:03:28;;;;;;;16.95;4.78;;;;;;;21.39;69.94;94211.47;5092361;28;20204;-61
2022/05/24 08:05:54;;;;;;;9.38;4.90;;;;;;;21.53;70.03;94192.28;5093579;28;20565;-60
2022/05/24 08:08:19;;;;;;;5.30;4.28;;;;;;;21.62;69.29;94203.97;5093833;28;20204;-64
2022/05/24 08:10:45;;;;;;;8.75;4.45;;;;;;;21.57;67.72;94238.22;5092029;28;20184;-60
2022/05/24 08:13:13;;;;;;;7.68;5.57;;;;;;;21.36;70.29;94191.97;5093539;28;20200;-60
2022/05/24 08:15:40;;;;;;;11.15;5.40;;;;;;;21.40;70.32;94189.75;5093031;28;20309;-64
2022/05/24 08:18:06;;;;;;;64.70;33.47;;;;;;;21.74;69.92;94197.13;5091860;28;20231;-63
2022/05/24 08:20:33;;;;;;;15.85;8.18;;;;;;;21.89;70.52;94191.69;5091765;28;20665;-62
2022/05/24 08:22:59;;;;;;;8.93;5.72;;;;;;;21.93;72.42;94164.38;5091922;28;20238;-60
2022/05/24 08:25:27;;;;;;;18.20;5.30;;;;;;;21.87;70.22;94201.47;5092944;28;20646;-62
2022/05/24 08:27:53;;;;;;;8.18;6.60;;;;;;;21.89;69.50;94207.22;5093042;28;20693;-64
2022/05/24 08:30:19;;;;;;;7.72;6.10;;;;;;;22.20;69.21;94212.38;5091674;28;20177;-63
2022/05/24 08:32:48;;;;;;;6.68;4.38;;;;;;;22.36;67.58;94238.53;5091298;28;20261;-62
2022/05/24 08:35:17;;;;;;;5.00;3.95;;;;;;;22.33;68.51;94217.44;5092477;28;20176;-64
2022/05/24 08:37:43;;;;;;;8.55;4.60;;;;;;;22.40;68.53;94213.00;5098073;22;20232;-62
2022/05/24 08:40:11;;;;;;;14.55;4.53;;;;;;;22.18;68.29;94214.41;5053913;28;20548;-63
2022/05/24 08:43:13;;;;;;;6.93;4.28;;;;;;;22.27;67.62;94226.88;5072424;28;20662;-64
2022/05/24 08:48:48;;;;;;;9.45;4.57;;;;;;;22.55;68.67;94209.09;5073036;28;20299;-63
2022/05/24 08:51:19;;;;;;;10.95;4.50;;;;;;;22.60;69.29;94203.28;5072428;28;20165;-60
2022/05/24 08:53:47;;;;;;;8.40;4.43;;;;;;;22.88;66.64;94255.47;5072777;28;20207;-64
2022/05/24 08:56:34;;;;;;;10.60;4.32;;;;;;;22.66;65.40;94279.38;5072078;28;20177;-61
2022/05/24 08:59:07;;;;;;;6.57;3.85;;;;;;;22.88;65.99;94257.25;5072635;28;20217;-60
2022/05/24 09:01:32;;;;;;;7.53;4.18;;;;;;;22.85;66.42;94240.31;5072405;28;20188;-61
2022/05/24 09:04:05;;;;;;;9.52;5.13;;;;;;;23.07;66.09;94246.66;5054542;28;20308;-61
2022/05/24 09:06:38;;;;;;;6.28;4.28;;;;;;;22.93;65.66;94250.41;5072172;28;20743;-64
2022/05/24 09:09:39;;;;;;;6.88;4.65;;;;;;;23.00;64.52;94284.84;5054404;28;20212;-61
2022/05/24 09:12:20;;;;;;;8.40;5.00;;;;;;;22.98;65.25;94252.34;4987652;28;20242;-61
2022/05/24 09:18:26;;;;;;;6.45;4.70;;;;;;;23.48;61.91;94315.31;5030014;28;20476;-62
2022/05/24 09:21:00;;;;;;;7.53;3.97;;;;;;;23.42;64.52;94238.31;5029903;28;20568;-63
2022/05/24 09:23:36;;;;;;;9.50;4.63;;;;;;;23.89;65.85;94214.13;5013352;28;20216;-62
2022/05/24 09:26:03;;;;;;;8.93;4.40;;;;;;;24.14;64.53;94248.56;5013214;28;20178;-61
2022/05/24 09:28:56;;;;;;;9.10;4.78;;;;;;;24.36;62.77;94283.41;5029801;28;20285;-61
2022/05/24 09:31:49;;;;;;;5.82;4.93;;;;;;;24.31;61.50;94293.69;5029772;28;20174;-62
2022/05/24 09:34:17;;;;;;;9.23;4.50;;;;;;;24.17;60.57;94294.88;5029731;28;20659;-63
2022/05/24 09:36:57;;;;;;;14.30;5.60;;;;;;;24.31;60.69;94296.28;5029538;28;20274;-60
2022/05/24 09:39:30;;;;;;;8.23;4.97;;;;;;;24.27;58.64;94326.31;5029704;28;20218;-60
2022/05/24 09:42:06;;;;;;;9.82;5.70;;;;;;;24.33;61.35;94262.25;5029650;28;20171;-65
2022/05/24 09:44:58;;;;;;;11.63;5.57;;;;;;;24.23;61.27;94280.22;5029753;28;20259;-61
2022/05/24 09:47:31;;;;;;;7.75;4.85;;;;;;;24.33;60.21;94283.84;5030924;28;20186;-62
2022/05/24 09:50:14;;;;;;;8.07;5.35;;;;;;;24.87;60.03;94299.22;5072022;28;20795;-62
2022/05/24 09:52:40;;;;;;;8.63;5.05;;;;;;;25.35;61.87;94261.75;5052834;28;20599;-64
2022/05/24 09:55:06;;;;;;;9.65;4.85;;;;;;;25.41;58.26;94328.53;5071722;28;20181;-64
2022/05/24 09:57:33;;;;;;;10.13;4.70;;;;;;;25.47;57.25;94340.63;5053572;28;20208;-60
2022/05/24 10:00:20;;;;;;;8.90;4.70;;;;;;;25.57;58.25;94312.97;5071791;28;20188;-64
2022/05/24 10:02:46;;;;;;;12.95;4.80;;;;;;;25.14;57.86;94332.59;5053857;28;20718;-62
2022/05/24 10:05:18;;;;;;;8.68;5.53;;;;;;;25.37;56.90;94322.94;5071733;28;20659;-62
2022/05/24 10:08:01;;;;;;;13.40;6.50;;;;;;;25.56;57.77;94310.59;5071759;28;20734;-64
2022/05/24 10:10:33;;;;;;;6.72;5.22;;;;;;;25.49;58.29;94289.13;5071478;28;20714;-60
2022/05/24 10:13:01;;;;;;;9.30;5.57;;;;;;;25.85;59.11;94273.16;5053401;28;20211;-61
2022/05/24 10:15:37;;;;;;;5.15;4.65;;;;;;;25.96;55.93;94334.84;5071446;28;20181;-61
2022/05/24 10:18:02;;;;;;;8.43;5.97;;;;;;;26.07;58.78;94260.28;5053211;28;20299;-64
2022/05/24 10:20:47;;;;;;;9.52;5.82;;;;;;;26.29;56.55;94314.13;5053213;28;20276;-61
2022/05/24 10:23:29;;;;;;;9.27;5.35;;;;;;;26.61;55.83;94325.63;5071327;28;20247;-61
2022/05/24 10:26:06;;;;;;;8.15;5.32;;;;;;;26.88;55.66;94317.19;5071148;28;20185;-64
2022/05/24 10:28:37;;;;;;;9.77;5.63;;;;;;;26.89;53.47;94366.53;5072108;28;20291;-61
2022/05/24 10:31:30;;;;;;;11.50;5.28;;;;;;;27.22;55.78;94314.31;5071125;28;20646;-63
2022/05/24 10:43:28;;;;;;;8.73;5.40;;;;;;;28.08;51.84;94376.34;5078866;22;20614;-63
2022/05/24 10:46:04;;;;;;;13.55;5.20;;;;;;;28.16;51.38;94355.00;5071256;28;20224;-63
2022/05/24 10:48:34;;;;;;;6.50;5.00;;;;;;;28.23;49.23;94407.91;5071157;28;20224;-62
2022/05/24 10:51:15;;;;;;;7.07;5.00;;;;;;;28.18;50.68;94347.69;5071568;28;20192;-61
2022/05/24 10:53:56;;;;;;;12.05;5.13;;;;;;;28.23;50.10;94371.31;5071048;28;20207;-61
2022/05/24 10:56:33;;;;;;;8.40;5.10;;;;;;;28.26;50.24;94335.22;5053327;28;20271;-61
2022/05/24 10:59:08;;;;;;;9.40;5.70;;;;;;;28.65;50.39;94352.38;5071192;28;20208;-62
2022/05/24 11:01:41;;;;;;;7.97;5.78;;;;;;;28.75;48.37;94410.03;5071609;28;20191;-64
2022/05/24 11:04:13;;;;;;;8.02;5.07;;;;;;;28.44;49.15;94374.13;5055185;28;20192;-62
2022/05/24 11:06:54;;;;;;;7.78;5.45;;;;;;;28.99;49.90;94344.03;5075079;28;20197;-61
2022/05/24 11:09:24;;;;;;;10.23;5.50;;;;;;;29.35;47.93;94410.56;5074545;28;20200;-64
2022/05/24 11:12:09;;;;;;;6.95;4.72;;;;;;;29.28;48.69;94360.25;5056661;28;20185;-62
2022/05/24 11:14:50;;;;;;;10.60;7.38;;;;;;;29.30;45.50;94431.50;5074551;28;20188;-64
2022/05/24 11:17:18;;;;;;;7.88;4.90;;;;;;;29.25;46.91;94381.69;5056325;28;20239;-61
2022/05/24 11:19:54;;;;;;;8.77;5.13;;;;;;;29.38;47.17;94373.41;5074717;28;20185;-65
2022/05/24 11:22:35;;;;;;;10.55;5.22;;;;;;;29.05;45.90;94384.13;5074482;28;20180;-59
2022/05/24 11:25:19;;;;;;;9.35;5.38;;;;;;;28.54;46.47;94361.16;5058162;28;20715;-64
2022/05/24 11:27:54;;;;;;;8.82;5.93;;;;;;;28.68;47.24;94318.66;5056241;28;20248;-63
2022/05/24 11:30:25;;;;;;;7.35;5.53;;;;;;;29.29;46.16;94361.81;5081354;22;20281;-63
2022/05/24 11:33:03;;;;;;;8.23;4.90;;;;;;;29.26;46.34;94343.19;5074174;28;20274;-63
2022/05/24 11:35:35;;;;;;;5.93;4.93;;;;;;;29.28;46.18;94346.34;5074490;28;20188;-61
2022/05/24 11:38:22;;;;;;;10.10;5.65;;;;;;;29.69;45.48;94369.13;5074052;28;20213;-62
2022/05/24 11:41:12;;;;;;;8.02;5.05;;;;;;;29.68;46.20;94322.97;5074513;28;20361;-61
2022/05/24 11:43:43;;;;;;;8.45;5.30;;;;;;;29.25;43.71;94389.53;5055965;28;20234;-60
2022/05/24 11:46:10;;;;;;;9.48;5.38;;;;;;;28.68;45.42;94344.84;5074582;28;20185;-63
2022/05/24 11:48:41;;;;;;;8.55;5.43;;;;;;;29.05;46.98;94279.38;5073816;28;20189;-63
2022/05/24 11:51:22;;;;;;;7.85;5.68;;;;;;;29.34;44.79;94340.88;5056280;28;20560;-61
2022/05/24 11:53:48;;;;;;;6.70;5.28;;;;;;;29.24;44.61;94340.03;5073574;28;20284;-61
2022/05/24 11:56:15;;;;;;;10.07;5.57;;;;;;;29.42;46.66;94281.97;5073823;28;20636;-62
2022/05/24 11:58:45;;;;;;;13.00;5.88;;;;;;;29.41;46.51;94270.69;5073558;28;20294;-61
2022/05/24 12:01:33;;;;;;;9.57;6.15;;;;;;;29.90;46.02;94273.81;5074343;28;20238;-61
2022/05/24 12:10:04;;;;;;;7.18;5.70;;;;;;;29.88;44.17;94317.84;5074088;28;20727;-62
2022/05/24 12:12:34;;;;;;;11.27;5.63;;;;;;;29.65;44.70;94294.69;5073455;28;20260;-61
2022/05/24 12:15:11;;;;;;;7.13;5.53;;;;;;;29.73;43.08;94336.94;5054797;28;20661;-60
2022/05/24 12:17:37;;;;;;;8.80;5.38;;;;;;;29.78;44.90;94296.84;5073541;28;20214;-61
2022/05/24 12:20:04;;;;;;;8.15;5.50;;;;;;;29.72;44.80;94287.38;5073378;28;20177;-63
2022/05/24 12:22:33;;;;;;;15.20;5.30;;;;;;;29.91;45.59;94251.00;5073113;28;20172;-63
2022/05/24 12:25:00;;;;;;;10.98;5.75;;;;;;;30.30;44.98;94284.41;5073186;28;20523;-64
2022/05/24 12:27:49;;;;;;;9.85;5.85;;;;;;;30.57;44.86;94279.72;5055110;28;20177;-63
2022/05/24 12:30:41;;;;;;;9.07;5.32;;;;;;;30.69;45.12;94274.22;5055168;28;20300;-62
2022/05/24 12:33:33;;;;;;;6.95;5.32;;;;;;;30.74;43.21;94324.09;5072178;28;20277;-63
2022/05/24 12:36:07;;;;;;;9.48;5.47;;;;;;;30.85;44.27;94281.06;5073539;28;20184;-61